Flight Track Log - Related Links

Times and Time Zones

All times are in EDT time to prevent confusion due to time zone crossing. See the UCA3596 flight status page for this flight to view local times or setup timezone preferences in your user account.

Time Position Orientation Groundspeed Altitude Reporting Facility
EDT Latitude Longitude Course Direction KTS MPH feet Rate Location/Type
Mon 11:32:20 AM 40.6500 -74.1667 270° West 152 175 2,000  Level New York TRACON
Mon 11:33:14 AM 40.6500 -74.2167 270° West 193 222 3,200 1,526 Climbing New York TRACON
Mon 11:34:14 AM 40.7000 -74.2167 360° North 210 242 4,900 1,640 Climbing New York TRACON
Mon 11:36:06 AM 40.7742 -74.2731 330° Northwest 183 211 7,900 1,422 Climbing New York Center
Mon 11:37:07 AM 40.8253 -74.3086 332° Northwest 183 211 9,000 550 Climbing New York Center
Mon 11:38:06 AM 40.8889 -74.3394 340° North 222 255 9,000 101 Level New York Center
Mon 11:39:06 AM 40.9567 -74.3706 341° North 247 284 9,200 908 Climbing New York Center
Mon 11:40:05 AM 41.0161 -74.4011 339° North 235 270 10,800 1,311 Climbing New York Center
Mon 11:41:05 AM 41.0697 -74.4258 341° North 224 258 11,800 605 Climbing New York Center
Mon 11:42:04 AM 41.1353 -74.4597 339° North 232 267 12,000 50 Climbing New York Center
Mon 11:43:04 AM 41.1903 -74.4986 332° Northwest 242 278 11,900  Descending New York Center
Mon 11:44:05 AM 41.2397 -74.5814 308° West 247 284 12,000 49 Climbing New York Center
Mon 11:45:07 AM 41.2792 -74.6500 307° West 260 299 12,000  Level New York Center
Mon 11:46:05 AM 41.3286 -74.7300 309° West 254 292 12,000  Level New York Center
Mon 11:47:06 AM 41.3700 -74.7989 309° West 254 292 12,000  Level New York Center
Mon 11:48:05 AM 41.4192 -74.8792 309° West 254 292 12,000  Level New York Center
Mon 11:49:05 AM 41.4644 -74.9539 309° West 259 298 12,000  Level New York Center
Mon 11:50:04 AM 41.5036 -75.0231 307° West 259 298 12,000  Level New York Center
Mon 11:51:06 AM 41.5489 -75.0950 310° West 259 298 12,000  Level New York Center
Mon 11:52:07 AM 41.5981 -75.1786 308° West 259 298 12,000  Level New York Center
Mon 11:53:04 AM 41.6408 -75.2536 307° West 254 292 12,000 -200 Level New York Center
Mon 11:54:07 AM 41.6822 -75.3203 310° West 254 292 11,600 -500 Descending New York Center
Mon 11:55:04 AM 41.7250 -75.3956 307° West 254 292 11,000 -1,008 Descending New York Center
Mon 11:56:06 AM 41.7822 -75.4747 314° West 259 298 9,600 -1,328 Descending New York Center
Mon 11:57:06 AM 41.8400 -75.5428 319° Northwest 271 312 8,300 -1,271 Descending New York Center
Mon 11:58:04 AM 41.8936 -75.6050 319° Northwest 271 312 7,100 -1,160 Descending New York Center
Mon 11:59:05 AM 41.9433 -75.6644 318° Northwest 271 312 6,000 -787 Descending New York Center
Mon 12:00:06 PM 42.0006 -75.7358 317° Northwest 261 300 5,500 -942 Descending New York Center
Mon 12:01:06 PM 42.0444 -75.7836 321° Northwest 250 288 4,100 -1,109 Descending New York Center
Mon 12:02:05 PM 42.0922 -75.8347 322° Northwest 239 275 3,300 -353 Descending New York Center
Mon 12:03:05 PM 42.1381 -75.8858 320° Northwest 222 255 3,400 -99 Climbing New York Center
Mon 12:04:06 PM 42.1839 -75.9314 324° Northwest 217 250 3,100 -200 Descending New York Center
Mon 12:05:05 PM 42.2261 -75.9628 331° Northwest 198 228 3,000 -350 Descending New York Center
Mon 12:06:06 PM 42.2453 -76.0006 304° West 176 203 2,400 -400 Descending New York Center
Mon 12:07:05 PM 42.2644 -76.0414 302° West 124 143 2,200 -203 Descending New York Center

Login

Don't have an account? Register now (free) for customized features, flight alerts, and more!